MSC Vega — D5BE4 — position and weather

sailwx.info

Track history (hours):
 
Tides and Currents Weather Stations Pressure Air Temp Water Temp Dewpoint Dewpoint Depression Visibility Wind Speed Wind Dir Waves Ship Positions

MSC Vega

Last reported at 2016-Jun-29 17:32 UTC. Time now 2016-Jun-29 18:18 UTC.
Position N 39°26' W 000°20'.

Length 366 m; draft 11.6 m.

Type: Ship (hazmat cat A). MMSI: 636015506.

Date/timePositionNaut miles runAvg speedWind from/ knotsBaromVisibWave heightAir tempDewpointWater temp
2016-Jun-29 17:32N 39°26' W 000°20'0 0.0
2016-Jun-29 16:29N 39°26' W 000°20'0 0.0
2016-Jun-29 15:32N 39°26' W 000°20'0 0.0
2016-Jun-29 14:32N 39°26' W 000°20'0 0.0
2016-Jun-29 13:32N 39°26' W 000°20'0 0.0
2016-Jun-29 12:32N 39°26' W 000°20'0 0.0
2016-Jun-29 11:32N 39°26' W 000°20'0 0.0
2016-Jun-29 10:32N 39°26' W 000°20'0 0.0
2016-Jun-29 09:29N 39°26' W 000°20'0 0.0
2016-Jun-29 08:32N 39°26' W 000°20'0 0.0
2016-Jun-29 07:32N 39°26' W 000°20'0 0.0
2016-Jun-29 06:32N 39°26' W 000°20'0 0.0
2016-Jun-29 05:32N 39°26' W 000°20'0 0.0
2016-Jun-29 04:32N 39°26' W 000°20'0 0.0
2016-Jun-29 03:20N 39°26' W 000°20'0 0.0
2016-Jun-29 02:32N 39°26' W 000°20'0 0.0
2016-Jun-29 01:32N 39°26' W 000°20'0 0.0
2016-Jun-29 00:32N 39°26' W 000°20'0 0.0
2016-Jun-28 23:32N 39°26' W 000°20'0 0.0
2016-Jun-28 22:32N 39°26' W 000°20'0 0.0
2016-Jun-28 21:23N 39°26' W 000°20'0 0.0
2016-Jun-28 20:32N 39°26' W 000°20'0 0.0
2016-Jun-28 19:32N 39°26' W 000°20'0 0.0
2016-Jun-28 18:32N 39°26' W 000°20'0 0.0
2016-Jun-28 17:26N 39°26' W 000°20'0 0.0
2016-Jun-28 16:32N 39°26' W 000°20'0 0.0
2016-Jun-28 15:32N 39°26' W 000°20'0 0.0
2016-Jun-28 14:32N 39°26' W 000°20'0 0.0
2016-Jun-28 13:32N 39°26' W 000°20'0 0.0
2016-Jun-28 12:32N 39°26' W 000°20'0 0.0
2016-Jun-28 11:33N 39°26' W 000°20'0 0.0
2016-Jun-28 10:33N 39°26' W 000°20'1 0.6
2016-Jun-28 09:32N 39°26' W 000°19'9 9.1
2016-Jun-28 08:34N 39°31' W 000°09'6716.7
2016-Jun-28 04:33N 40°17' E 000°54'1818.4
2016-Jun-28 03:33N 40°29' E 001°12'1918.4
2016-Jun-28 02:33N 40°41' E 001°31'1818.5
2016-Jun-28 01:33N 40°55' E 001°47'1818.0
2016-Jun-28 00:33N 41°09' E 002°02'1211.8
2016-Jun-27 23:33N 41°19' E 002°10'1 0.8
2016-Jun-27 22:30N 41°19' E 002°09'0 0.0
2016-Jun-27 21:33N 41°19' E 002°09'0 0.0
2016-Jun-27 20:30N 41°19' E 002°09'0 0.0
2016-Jun-27 19:30N 41°19' E 002°09'0 0.0
2016-Jun-27 11:06N 41°19' E 002°09'1 0.1
2016-Jun-26 22:21N 41°19' E 002°10'6 7.3
2016-Jun-26 21:33N 41°15' E 002°15'1616.0
2016-Jun-26 20:33N 41°08' E 002°34'1918.9
2016-Jun-26 19:33N 40°59' E 002°56'2019.6
2016-Jun-26 18:33N 40°49' E 003°19'2019.4
2016-Jun-26 17:31N 40°39' E 003°42'8319.7
2016-Jun-26 13:19N 39°60' E 005°17'1620.2
2016-Jun-26 12:33N 39°52' E 005°35'11919.7
2016-Jun-26 06:32N 38°55' E 007°49'1919.7
2016-Jun-26 05:33N 38°45' E 008°11'2019.6
2016-Jun-26 04:34N 38°36' E 008°33'2019.6
2016-Jun-26 03:34N 38°26' E 008°54'2019.6
2016-Jun-26 02:33N 38°17' E 009°17'1919.4
2016-Jun-26 01:33N 38°08' E 009°39'1919.2
2016-Jun-26 00:33N 37°59' E 010°00'1918.9
2016-Jun-25 23:33N 37°50' E 010°21'1818.4
2016-Jun-25 22:33N 37°41' E 010°42'2019.4
2016-Jun-25 21:33N 37°32' E 011°03'1919.3
2016-Jun-25 20:33N 37°23' E 011°24'2019.7
2016-Jun-25 19:33N 37°12' E 011°45'2019.6
2016-Jun-25 18:34N 36°60' E 012°04'2019.3
2016-Jun-25 17:33N 36°48' E 012°24'1919.2
2016-Jun-25 16:33N 36°38' E 012°44'1818.7
2016-Jun-25 15:34N 36°28' E 013°04'1919.1
2016-Jun-25 14:34N 36°17' E 013°23'2019.6
2016-Jun-25 13:34N 36°06' E 013°43'1919.3
2016-Jun-25 12:33N 35°55' E 014°03'1919.3
2016-Jun-25 11:34N 35°44' E 014°23'9 9.3
2016-Jun-25 10:33N 35°49' E 014°33'0 0.0
2016-Jun-25 09:33N 35°49' E 014°33'0 0.0
2016-Jun-25 03:15N 35°49' E 014°33'0 0.0
2016-Jun-25 02:27N 35°49' E 014°33'0 0.0
2016-Jun-25 01:33N 35°49' E 014°33'0 0.0
2016-Jun-25 00:33N 35°49' E 014°33'0 0.0
2016-Jun-24 22:21N 35°49' E 014°33'0 0.0
2016-Jun-24 21:27N 35°49' E 014°33'0 0.0
2016-Jun-24 20:18N 35°49' E 014°33'0 0.0
2016-Jun-24 18:24N 35°49' E 014°33'1 1.6
2016-Jun-24 17:33N 35°48' E 014°34'2 2.0
2016-Jun-24 16:33N 35°47' E 014°36'3 3.0
2016-Jun-24 15:33N 35°46' E 014°40'6 6.3
2016-Jun-24 14:33N 35°44' E 014°47'8 7.8
2016-Jun-24 13:33N 35°43' E 014°56'29918.3
2016-Jun-23 21:15N 34°26' E 020°49'1722.0
2016-Jun-23 20:28N 34°21' E 021°09'49121.4
2016-Jun-22 21:33N 32°15' E 030°37'2221.8
2016-Jun-22 20:33N 32°07' E 031°01'2121.5
2016-Jun-22 19:33N 31°58' E 031°24'2121.3
2016-Jun-22 18:33N 31°49' E 031°47'1919.4
2016-Jun-22 17:33N 31°39' E 032°06'1818.2
2016-Jun-22 16:33N 31°28' E 032°24'1515.3
2016-Jun-22 15:33N 31°13' E 032°21'9 8.6
2016-Jun-22 14:33N 31°05' E 032°19'  
Track history (hours):
 
Tides and Currents Weather Stations Pressure Air Temp Water Temp Dewpoint Dewpoint Depression Visibility Wind Speed Wind Dir Waves Ship Positions

MSC Vega

Last reported at 2016-Jun-29 17:32 UTC. Time now 2016-Jun-29 18:18 UTC.
Position N 39°26' W 000°20'.

Length 366 m; draft 11.6 m.

Type: Ship (hazmat cat A). MMSI: 636015506.

Date/timePositionNaut miles runAvg speedWind from/ knotsBaromVisibWave heightAir tempDewpointWater temp
2016-Jun-29 17:32N 39°26' W 000°20'0 0.0
2016-Jun-29 16:29N 39°26' W 000°20'0 0.0
2016-Jun-29 15:32N 39°26' W 000°20'0 0.0
2016-Jun-29 14:32N 39°26' W 000°20'0 0.0
2016-Jun-29 13:32N 39°26' W 000°20'0 0.0
2016-Jun-29 12:32N 39°26' W 000°20'0 0.0
2016-Jun-29 11:32N 39°26' W 000°20'0 0.0
2016-Jun-29 10:32N 39°26' W 000°20'0 0.0
2016-Jun-29 09:29N 39°26' W 000°20'0 0.0
2016-Jun-29 08:32N 39°26' W 000°20'0 0.0
2016-Jun-29 07:32N 39°26' W 000°20'0 0.0
2016-Jun-29 06:32N 39°26' W 000°20'0 0.0
2016-Jun-29 05:32N 39°26' W 000°20'0 0.0
2016-Jun-29 04:32N 39°26' W 000°20'0 0.0
2016-Jun-29 03:20N 39°26' W 000°20'0 0.0
2016-Jun-29 02:32N 39°26' W 000°20'0 0.0
2016-Jun-29 01:32N 39°26' W 000°20'0 0.0
2016-Jun-29 00:32N 39°26' W 000°20'0 0.0
2016-Jun-28 23:32N 39°26' W 000°20'0 0.0
2016-Jun-28 22:32N 39°26' W 000°20'0 0.0
2016-Jun-28 21:23N 39°26' W 000°20'0 0.0
2016-Jun-28 20:32N 39°26' W 000°20'0 0.0
2016-Jun-28 19:32N 39°26' W 000°20'0 0.0
2016-Jun-28 18:32N 39°26' W 000°20'0 0.0
2016-Jun-28 17:26N 39°26' W 000°20'0 0.0
2016-Jun-28 16:32N 39°26' W 000°20'0 0.0
2016-Jun-28 15:32N 39°26' W 000°20'0 0.0
2016-Jun-28 14:32N 39°26' W 000°20'0 0.0
2016-Jun-28 13:32N 39°26' W 000°20'0 0.0
2016-Jun-28 12:32N 39°26' W 000°20'0 0.0
2016-Jun-28 11:33N 39°26' W 000°20'0 0.0
2016-Jun-28 10:33N 39°26' W 000°20'1 0.6
2016-Jun-28 09:32N 39°26' W 000°19'9 9.1
2016-Jun-28 08:34N 39°31' W 000°09'6716.7
2016-Jun-28 04:33N 40°17' E 000°54'1818.4
2016-Jun-28 03:33N 40°29' E 001°12'1918.4
2016-Jun-28 02:33N 40°41' E 001°31'1818.5
2016-Jun-28 01:33N 40°55' E 001°47'1818.0
2016-Jun-28 00:33N 41°09' E 002°02'1211.8
2016-Jun-27 23:33N 41°19' E 002°10'1 0.8
2016-Jun-27 22:30N 41°19' E 002°09'0 0.0
2016-Jun-27 21:33N 41°19' E 002°09'0 0.0
2016-Jun-27 20:30N 41°19' E 002°09'0 0.0
2016-Jun-27 19:30N 41°19' E 002°09'0 0.0
2016-Jun-27 11:06N 41°19' E 002°09'1 0.1
2016-Jun-26 22:21N 41°19' E 002°10'6 7.3
2016-Jun-26 21:33N 41°15' E 002°15'1616.0
2016-Jun-26 20:33N 41°08' E 002°34'1918.9
2016-Jun-26 19:33N 40°59' E 002°56'2019.6
2016-Jun-26 18:33N 40°49' E 003°19'2019.4
2016-Jun-26 17:31N 40°39' E 003°42'8319.7
2016-Jun-26 13:19N 39°60' E 005°17'1620.2
2016-Jun-26 12:33N 39°52' E 005°35'11919.7
2016-Jun-26 06:32N 38°55' E 007°49'1919.7
2016-Jun-26 05:33N 38°45' E 008°11'2019.6
2016-Jun-26 04:34N 38°36' E 008°33'2019.6
2016-Jun-26 03:34N 38°26' E 008°54'2019.6
2016-Jun-26 02:33N 38°17' E 009°17'1919.4
2016-Jun-26 01:33N 38°08' E 009°39'1919.2
2016-Jun-26 00:33N 37°59' E 010°00'1918.9
2016-Jun-25 23:33N 37°50' E 010°21'1818.4
2016-Jun-25 22:33N 37°41' E 010°42'2019.4
2016-Jun-25 21:33N 37°32' E 011°03'1919.3
2016-Jun-25 20:33N 37°23' E 011°24'2019.7
2016-Jun-25 19:33N 37°12' E 011°45'2019.6
2016-Jun-25 18:34N 36°60' E 012°04'2019.3
2016-Jun-25 17:33N 36°48' E 012°24'1919.2
2016-Jun-25 16:33N 36°38' E 012°44'1818.7
2016-Jun-25 15:34N 36°28' E 013°04'1919.1
2016-Jun-25 14:34N 36°17' E 013°23'2019.6
2016-Jun-25 13:34N 36°06' E 013°43'1919.3
2016-Jun-25 12:33N 35°55' E 014°03'1919.3
2016-Jun-25 11:34N 35°44' E 014°23'9 9.3
2016-Jun-25 10:33N 35°49' E 014°33'0 0.0
2016-Jun-25 09:33N 35°49' E 014°33'0 0.0
2016-Jun-25 03:15N 35°49' E 014°33'0 0.0
2016-Jun-25 02:27N 35°49' E 014°33'0 0.0
2016-Jun-25 01:33N 35°49' E 014°33'0 0.0
2016-Jun-25 00:33N 35°49' E 014°33'0 0.0
2016-Jun-24 22:21N 35°49' E 014°33'0 0.0
2016-Jun-24 21:27N 35°49' E 014°33'0 0.0
2016-Jun-24 20:18N 35°49' E 014°33'0 0.0
2016-Jun-24 18:24N 35°49' E 014°33'1 1.6
2016-Jun-24 17:33N 35°48' E 014°34'2 2.0
2016-Jun-24 16:33N 35°47' E 014°36'3 3.0
2016-Jun-24 15:33N 35°46' E 014°40'6 6.3
2016-Jun-24 14:33N 35°44' E 014°47'8 7.8
2016-Jun-24 13:33N 35°43' E 014°56'29918.3
2016-Jun-23 21:15N 34°26' E 020°49'1722.0
2016-Jun-23 20:28N 34°21' E 021°09'49121.4
2016-Jun-22 21:33N 32°15' E 030°37'2221.8
2016-Jun-22 20:33N 32°07' E 031°01'2121.5
2016-Jun-22 19:33N 31°58' E 031°24'2121.3
2016-Jun-22 18:33N 31°49' E 031°47'1919.4
2016-Jun-22 17:33N 31°39' E 032°06'1818.2
2016-Jun-22 16:33N 31°28' E 032°24'1515.3
2016-Jun-22 15:33N 31°13' E 032°21'9 8.6
2016-Jun-22 14:33N 31°05' E 032°19'  

Dump ship's entire track history